createdAt,value
2023-01-17T00:02:09.851Z,1.73
2023-01-17T00:04:55.397Z,0.40
2023-01-17T00:07:41.517Z,0.70
2023-01-17T00:10:09.760Z,1.00
2023-01-17T00:12:36.756Z,0.68
2023-01-17T00:15:04.052Z,2.10
2023-01-17T00:17:31.019Z,2.25
2023-01-17T00:20:18.645Z,1.00
2023-01-17T00:23:05.723Z,0.60
2023-01-17T00:25:53.747Z,1.23
2023-01-17T00:28:20.598Z,0.30
2023-01-17T00:30:47.583Z,0.73
2023-01-17T00:33:14.435Z,1.02
2023-01-17T00:35:41.373Z,1.05
2023-01-17T00:38:12.433Z,1.15
2023-01-17T00:40:40.748Z,2.38
2023-01-17T00:43:26.603Z,0.88
2023-01-17T00:46:12.191Z,0.50
2023-01-17T00:48:57.818Z,0.47
2023-01-17T00:51:43.868Z,0.63
2023-01-17T00:54:29.509Z,0.20
2023-01-17T00:57:15.259Z,1.17
2023-01-17T01:00:00.637Z,0.88
2023-01-17T01:02:46.307Z,0.30
2023-01-17T01:05:32.088Z,0.68
2023-01-17T01:08:17.627Z,0.28
2023-01-17T01:11:03.745Z,0.28
2023-01-17T01:13:49.686Z,0.30
2023-01-17T01:16:35.793Z,1.73
2023-01-17T01:19:22.093Z,0.38
2023-01-17T01:22:07.804Z,0.95
2023-01-17T01:24:53.697Z,0.65
2023-01-17T01:27:39.205Z,1.88
2023-01-17T01:30:25.125Z,0.20
2023-01-17T01:33:10.437Z,0.75
2023-01-17T01:35:37.388Z,0.52
2023-01-17T01:38:04.278Z,0.85
2023-01-17T01:40:31.337Z,1.50
2023-01-17T01:42:59.828Z,0.77
2023-01-17T01:45:30.384Z,0.22
2023-01-17T01:48:04.089Z,0.88
2023-01-17T01:50:31.147Z,0.60
2023-01-17T01:52:59.968Z,1.42
2023-01-17T01:55:32.963Z,1.05
2023-01-17T01:58:02.370Z,0.85
2023-01-17T02:00:31.058Z,0.30
2023-01-17T02:02:59.802Z,0.75
2023-01-17T02:05:28.586Z,0.77
2023-01-17T02:08:10.472Z,1.13
2023-01-17T02:10:38.615Z,0.65
2023-01-17T02:13:06.311Z,1.95
2023-01-17T02:15:39.515Z,0.52
2023-01-17T02:18:32.825Z,0.85
2023-01-17T02:21:22.450Z,0.70
2023-01-17T02:24:00.416Z,0.88
2023-01-17T02:27:01.550Z,0.65
2023-01-17T02:29:55.505Z,0.90
2023-01-17T02:32:34.718Z,1.85
2023-01-17T02:35:07.568Z,2.28
2023-01-17T02:37:43.578Z,0.57
2023-01-17T02:40:16.720Z,0.40
2023-01-17T02:42:50.778Z,1.40
2023-01-17T02:45:18.128Z,1.15
2023-01-17T02:47:45.115Z,2.00
2023-01-17T02:50:20.804Z,0.52
2023-01-17T02:52:56.664Z,1.65
2023-01-17T02:56:00.917Z,0.52
2023-01-17T02:58:40.016Z,0.50
2023-01-17T03:01:46.064Z,1.85
2023-01-17T03:04:32.510Z,0.90
2023-01-17T03:07:01.998Z,1.73
2023-01-17T03:09:29.449Z,0.82
2023-01-17T03:11:56.390Z,0.55
2023-01-17T03:14:23.342Z,1.10
2023-01-17T03:16:50.352Z,1.33
2023-01-17T03:19:17.321Z,1.05
2023-01-17T03:21:44.369Z,0.93
2023-01-17T03:24:11.350Z,0.50
2023-01-17T03:26:38.557Z,1.73
2023-01-17T03:29:05.464Z,1.70
2023-01-17T03:31:32.450Z,2.05
2023-01-17T03:33:59.356Z,1.27
2023-01-17T03:36:26.341Z,0.43
2023-01-17T03:38:53.285Z,0.95
2023-01-17T03:41:20.230Z,0.52
2023-01-17T03:43:47.177Z,0.85
2023-01-17T03:46:27.505Z,1.08
2023-01-17T03:48:54.552Z,1.23
2023-01-17T03:51:21.529Z,1.00
2023-01-17T03:53:48.508Z,0.40
2023-01-17T03:56:15.424Z,1.13
2023-01-17T03:58:42.546Z,2.42
2023-01-17T04:01:09.653Z,3.70
2023-01-17T04:03:36.664Z,1.65
2023-01-17T04:06:03.915Z,1.73
2023-01-17T04:08:30.921Z,0.88
2023-01-17T04:10:57.930Z,1.40
2023-01-17T04:13:24.839Z,1.65
2023-01-17T04:15:51.852Z,1.48
2023-01-17T04:18:19.542Z,0.55
2023-01-17T04:20:46.511Z,1.85
2023-01-17T04:23:13.632Z,1.27
2023-01-17T04:25:40.629Z,1.15
2023-01-17T04:28:07.586Z,0.75
2023-01-17T04:30:34.837Z,0.77
2023-01-17T04:33:01.812Z,1.00
2023-01-17T04:35:31.714Z,1.70
2023-01-17T04:37:58.656Z,1.25
2023-01-17T04:40:26.597Z,2.40
2023-01-17T04:42:54.431Z,0.85
2023-01-17T04:45:21.347Z,1.80
2023-01-17T04:47:48.387Z,1.15
2023-01-17T04:50:15.363Z,1.40
2023-01-17T04:52:42.370Z,0.70
2023-01-17T04:55:09.529Z,0.45
2023-01-17T04:57:36.470Z,1.05
2023-01-17T05:00:03.789Z,0.80
2023-01-17T05:02:31.140Z,2.97
2023-01-17T05:04:58.164Z,2.28
2023-01-17T05:07:25.411Z,0.93
2023-01-17T05:09:52.418Z,1.00
2023-01-17T05:12:19.358Z,0.50
2023-01-17T05:14:46.277Z,1.80
2023-01-17T05:17:13.227Z,4.35
2023-01-17T05:19:40.245Z,2.38
2023-01-17T05:22:15.311Z,2.10
2023-01-17T05:24:43.930Z,2.03
2023-01-17T05:27:11.680Z,0.68
2023-01-17T05:29:38.933Z,1.58
2023-01-17T05:32:06.206Z,1.08
2023-01-17T05:34:33.251Z,2.35
2023-01-17T05:37:00.221Z,1.52
2023-01-17T05:39:27.197Z,2.25
2023-01-17T05:41:54.213Z,1.08
2023-01-17T05:44:21.360Z,2.30
2023-01-17T05:46:48.352Z,1.98
2023-01-17T05:49:15.287Z,3.65
2023-01-17T05:51:42.530Z,2.28
2023-01-17T05:54:09.412Z,1.38
2023-01-17T05:56:36.395Z,1.75
2023-01-17T05:59:03.316Z,1.30
2023-01-17T06:01:30.312Z,4.07
2023-01-17T06:03:57.206Z,1.45
2023-01-17T06:06:24.200Z,1.02
2023-01-17T06:08:51.252Z,1.85
2023-01-17T06:11:18.817Z,2.33
2023-01-17T06:13:45.852Z,2.65
2023-01-17T06:16:12.914Z,1.77
2023-01-17T06:18:39.873Z,2.58
2023-01-17T06:21:06.810Z,1.50
2023-01-17T06:23:33.820Z,5.70
2023-01-17T06:26:03.533Z,1.60
2023-01-17T06:28:30.482Z,1.48
2023-01-17T06:30:57.460Z,4.57
2023-01-17T06:33:24.609Z,2.67
2023-01-17T06:35:52.529Z,4.88
2023-01-17T06:38:19.604Z,4.97
2023-01-17T06:40:46.555Z,4.35
2023-01-17T06:43:13.489Z,7.07
2023-01-17T06:45:40.514Z,5.38
2023-01-17T06:48:07.443Z,5.85
2023-01-17T06:50:34.469Z,6.20
2023-01-17T06:53:02.903Z,6.78
2023-01-17T06:55:30.254Z,5.53
2023-01-17T06:57:57.795Z,8.50
2023-01-17T07:00:25.263Z,6.32
2023-01-17T07:02:52.449Z,8.60
2023-01-17T07:05:19.639Z,5.47
2023-01-17T07:07:46.692Z,4.15
2023-01-17T07:10:14.280Z,4.30
2023-01-17T07:12:41.334Z,6.55
2023-01-17T07:15:08.840Z,4.82
2023-01-17T07:17:35.768Z,4.72
2023-01-17T07:20:02.782Z,1.65
2023-01-17T07:22:29.914Z,3.45
2023-01-17T07:24:58.820Z,3.30
2023-01-17T07:27:27.798Z,2.45
2023-01-17T07:29:54.956Z,1.92
2023-01-17T07:32:22.007Z,1.83
2023-01-17T07:34:48.949Z,2.90
2023-01-17T07:37:15.894Z,4.35
2023-01-17T07:39:42.841Z,7.07
2023-01-17T07:42:09.729Z,6.75
2023-01-17T07:44:36.777Z,6.22
2023-01-17T07:47:04.421Z,7.65
2023-01-17T07:49:31.426Z,6.43
2023-01-17T07:51:58.361Z,6.47
2023-01-17T07:54:25.349Z,7.28
2023-01-17T07:56:52.267Z,8.73
2023-01-17T07:59:19.314Z,8.20
2023-01-17T08:01:47.665Z,8.43
2023-01-17T08:04:14.775Z,9.15
2023-01-17T08:06:43.010Z,7.18
2023-01-17T08:09:09.933Z,8.65
2023-01-17T08:11:37.031Z,8.57
2023-01-17T08:14:03.971Z,9.52
2023-01-17T08:16:30.937Z,5.90
2023-01-17T08:18:57.908Z,7.43
2023-01-17T08:21:24.945Z,6.13
2023-01-17T08:23:52.224Z,5.97
2023-01-17T08:26:22.759Z,6.68
2023-01-17T08:28:55.447Z,4.75
2023-01-17T08:31:22.509Z,4.43
2023-01-17T08:33:49.478Z,4.20
2023-01-17T08:36:16.622Z,6.05
2023-01-17T08:38:43.588Z,5.60
2023-01-17T08:41:10.618Z,4.70
2023-01-17T08:43:37.580Z,5.97
2023-01-17T08:46:06.438Z,5.10
2023-01-17T08:48:33.523Z,9.88
2023-01-17T08:51:01.859Z,7.88
2023-01-17T08:53:28.958Z,6.65
2023-01-17T08:55:59.761Z,6.93
2023-01-17T08:58:30.315Z,7.45
2023-01-17T09:01:05.055Z,7.43
2023-01-17T09:03:32.457Z,6.28
2023-01-17T09:06:09.654Z,7.18
2023-01-17T09:08:36.646Z,6.72
2023-01-17T09:11:10.764Z,3.72
2023-01-17T09:13:38.318Z,2.35
2023-01-17T09:16:05.529Z,1.95
2023-01-17T09:18:32.970Z,2.20
2023-01-17T09:20:59.975Z,3.33
2023-01-17T09:23:27.623Z,2.75
2023-01-17T09:25:54.928Z,1.67
2023-01-17T09:28:22.028Z,1.95
2023-01-17T09:30:49.069Z,4.10
2023-01-17T09:33:16.096Z,2.22
2023-01-17T09:35:43.161Z,1.92
2023-01-17T09:38:10.317Z,3.33
2023-01-17T09:40:44.867Z,8.70
2023-01-17T09:43:34.172Z,44.40
2023-01-17T09:46:01.373Z,5.78
2023-01-17T09:48:38.907Z,2.38
2023-01-17T09:51:21.733Z,3.35
2023-01-17T09:53:48.677Z,2.97
2023-01-17T09:56:29.674Z,3.45
2023-01-17T09:59:19.722Z,3.63
2023-01-17T10:02:05.599Z,3.15
2023-01-17T10:04:55.836Z,3.72
2023-01-17T10:07:33.228Z,3.05
2023-01-17T10:10:12.252Z,2.10
2023-01-17T10:13:07.779Z,1.95
2023-01-17T10:15:47.998Z,3.30
2023-01-17T10:18:33.420Z,3.53
2023-01-17T10:21:25.028Z,3.05
2023-01-17T10:24:13.742Z,2.22
2023-01-17T10:26:42.072Z,1.98
2023-01-17T10:29:20.071Z,2.13
2023-01-17T10:31:54.333Z,2.25
2023-01-17T10:34:41.302Z,3.30
2023-01-17T10:37:30.415Z,3.97
2023-01-17T10:39:58.167Z,3.05
2023-01-17T10:42:48.988Z,2.25
2023-01-17T10:45:18.673Z,1.48
2023-01-17T10:47:48.280Z,2.10
2023-01-17T10:50:15.430Z,1.25
2023-01-17T10:52:53.982Z,2.70
2023-01-17T10:55:40.037Z,2.08
2023-01-17T10:58:11.357Z,2.70
2023-01-17T11:03:14.981Z,1.73
2023-01-17T11:05:42.848Z,1.75
2023-01-17T11:08:09.769Z,0.95
2023-01-17T11:10:42.539Z,2.17
2023-01-17T11:13:21.313Z,3.42
2023-01-17T11:15:51.249Z,3.13
2023-01-17T11:18:22.108Z,1.30
2023-01-17T11:20:49.572Z,2.40
2023-01-17T11:23:29.944Z,3.53
2023-01-17T11:25:58.591Z,1.40
2023-01-17T11:28:30.658Z,1.50
2023-01-17T11:31:03.648Z,2.03
2023-01-17T11:33:48.247Z,5.00
2023-01-17T11:36:28.141Z,1.75
2023-01-17T11:38:56.517Z,0.80
2023-01-17T11:41:28.244Z,1.98
2023-01-17T11:43:58.243Z,1.73
2023-01-17T11:46:25.565Z,1.25
2023-01-17T11:48:56.147Z,2.65
2023-01-17T11:51:33.065Z,2.40
2023-01-17T11:54:17.591Z,2.28
2023-01-17T11:56:46.434Z,1.52
2023-01-17T11:59:25.208Z,2.58
2023-01-17T12:02:20.198Z,2.65
2023-01-17T12:05:15.509Z,1.85
2023-01-17T12:08:02.739Z,3.20
2023-01-17T12:11:00.255Z,2.35
2023-01-17T12:14:01.046Z,2.13
2023-01-17T12:16:49.458Z,1.80
2023-01-17T12:19:25.458Z,3.67
2023-01-17T12:22:35.212Z,3.00
2023-01-17T12:25:02.083Z,2.08
2023-01-17T12:27:47.050Z,3.55
2023-01-17T12:30:41.982Z,2.75
2023-01-17T12:33:33.804Z,2.45
2023-01-17T12:36:17.698Z,4.25
2023-01-17T12:38:46.060Z,3.70
2023-01-17T12:41:15.805Z,1.77
2023-01-17T12:43:43.663Z,2.90
2023-01-17T12:46:29.294Z,1.33
2023-01-17T12:49:14.979Z,3.58
2023-01-17T12:51:41.889Z,1.95
2023-01-17T12:54:16.341Z,2.22
2023-01-17T12:56:52.730Z,1.98
2023-01-17T12:59:27.131Z,2.78
2023-01-17T13:01:58.218Z,1.98
2023-01-17T13:07:10.589Z,2.40
2023-01-17T13:09:44.294Z,2.58
2023-01-17T13:12:13.997Z,4.88
2023-01-17T13:14:41.198Z,1.92
2023-01-17T13:17:39.867Z,2.83
2023-01-17T13:20:16.710Z,3.63
2023-01-17T13:22:43.664Z,2.53
2023-01-17T13:25:30.851Z,2.42
2023-01-17T13:28:03.887Z,4.03
2023-01-17T13:31:09.010Z,3.22
2023-01-17T13:33:45.061Z,3.90
2023-01-17T13:36:19.010Z,3.67
2023-01-17T13:39:13.755Z,6.22
2023-01-17T13:41:56.711Z,4.60
2023-01-17T13:44:25.662Z,4.95
2023-01-17T13:46:58.656Z,5.68
2023-01-17T13:49:34.725Z,4.50
2023-01-17T13:52:12.299Z,3.42
2023-01-17T13:57:27.896Z,4.05
2023-01-17T13:59:57.088Z,3.63
2023-01-17T14:02:32.844Z,2.30
2023-01-17T14:05:08.313Z,3.88
2023-01-17T14:07:36.167Z,2.72
2023-01-17T14:10:21.849Z,5.70
2023-01-17T14:12:49.043Z,2.35
2023-01-17T14:15:20.633Z,5.07
2023-01-17T14:17:52.535Z,3.53
2023-01-17T14:20:25.538Z,2.88
2023-01-17T14:23:00.379Z,5.38
2023-01-17T14:25:31.788Z,2.33
2023-01-17T14:28:00.849Z,4.25
2023-01-17T14:30:34.902Z,4.20
2023-01-17T14:33:08.846Z,3.10
2023-01-17T14:35:41.272Z,3.70
2023-01-17T14:38:22.550Z,3.80
2023-01-17T14:41:00.273Z,2.45
2023-01-17T14:43:28.748Z,2.35
2023-01-17T14:46:24.670Z,2.72
2023-01-17T14:49:12.527Z,3.55
2023-01-17T14:51:39.504Z,3.05
2023-01-17T14:54:18.815Z,3.25
2023-01-17T14:56:46.838Z,4.10
2023-01-17T14:59:16.926Z,3.25
2023-01-17T15:01:55.186Z,3.30
2023-01-17T15:04:39.471Z,2.78
2023-01-17T15:07:06.894Z,2.30
2023-01-17T15:09:35.639Z,4.75
2023-01-17T15:12:05.397Z,3.53
2023-01-17T15:14:34.496Z,2.75
2023-01-17T15:17:12.791Z,3.33
2023-01-17T15:19:48.219Z,4.93
2023-01-17T15:22:15.219Z,2.90
2023-01-17T15:24:44.522Z,3.65
2023-01-17T15:27:15.428Z,3.40
2023-01-17T15:29:43.047Z,3.22
2023-01-17T15:32:20.586Z,3.45
2023-01-17T15:34:48.257Z,8.10
2023-01-17T15:37:24.320Z,4.75
2023-01-17T15:39:51.251Z,5.05
2023-01-17T15:42:26.474Z,3.90
2023-01-17T15:44:58.396Z,10.50
2023-01-17T15:47:38.608Z,4.28
2023-01-17T15:50:21.196Z,4.15
2023-01-17T15:52:52.075Z,9.52
2023-01-17T15:55:38.193Z,9.15
2023-01-17T15:58:20.590Z,7.10
2023-01-17T16:00:47.760Z,4.25
2023-01-17T16:03:21.228Z,5.63
2023-01-17T16:05:48.649Z,4.88
2023-01-17T16:08:16.436Z,4.82
2023-01-17T16:10:43.660Z,11.48
2023-01-17T16:13:11.814Z,24.83
2023-01-17T16:15:39.878Z,8.52
2023-01-17T16:18:18.218Z,8.77
2023-01-17T16:20:55.644Z,14.13
2023-01-17T16:23:23.216Z,5.43
2023-01-17T16:25:50.159Z,4.97
2023-01-17T16:28:17.106Z,5.18
2023-01-17T16:30:44.650Z,6.60
2023-01-17T16:33:12.189Z,6.03
2023-01-17T16:35:40.093Z,6.05
2023-01-17T16:38:09.978Z,6.47
2023-01-17T16:40:41.859Z,6.32
2023-01-17T16:43:09.445Z,9.75
2023-01-17T16:45:44.208Z,16.70
2023-01-17T16:48:12.696Z,16.75
2023-01-17T16:50:48.009Z,14.10
2023-01-17T16:53:15.606Z,22.73
2023-01-17T16:55:42.743Z,20.17
2023-01-17T16:58:09.682Z,30.08
2023-01-17T17:00:36.647Z,61.40
2023-01-17T17:03:03.624Z,36.95
2023-01-17T17:05:33.494Z,20.00
2023-01-17T17:08:00.928Z,12.40
2023-01-17T17:10:27.970Z,8.32
2023-01-17T17:12:54.959Z,10.70
2023-01-17T17:15:21.958Z,8.52
2023-01-17T17:17:49.955Z,9.45
2023-01-17T17:20:17.589Z,9.38
2023-01-17T17:22:44.700Z,14.02
2023-01-17T17:25:16.038Z,15.73
2023-01-17T17:27:43.037Z,13.98
2023-01-17T17:30:10.643Z,19.98
2023-01-17T17:32:37.551Z,19.30
2023-01-17T17:35:05.274Z,12.43
2023-01-17T17:37:32.290Z,8.65
2023-01-17T17:39:59.221Z,7.28
2023-01-17T17:42:26.437Z,8.48
2023-01-17T17:44:53.715Z,8.23
2023-01-17T17:47:20.693Z,12.68
2023-01-17T17:49:47.651Z,10.68
2023-01-17T17:52:14.645Z,10.07
2023-01-17T17:54:41.601Z,10.52
2023-01-17T17:57:08.815Z,8.63
2023-01-17T17:59:35.779Z,5.65
2023-01-17T18:02:02.732Z,5.20
2023-01-17T18:04:29.862Z,8.70
2023-01-17T18:06:59.823Z,4.95
2023-01-17T18:09:26.808Z,5.22
2023-01-17T18:11:53.808Z,4.72
2023-01-17T18:14:23.960Z,5.63
2023-01-17T18:16:51.003Z,5.53
2023-01-17T18:19:23.404Z,7.22
2023-01-17T18:21:51.405Z,5.18
2023-01-17T18:24:22.452Z,6.05
2023-01-17T18:26:52.462Z,4.82
2023-01-17T18:29:20.897Z,5.53
2023-01-17T18:31:50.139Z,6.25
2023-01-17T18:34:21.204Z,6.38
2023-01-17T18:36:48.144Z,6.03
2023-01-17T18:39:18.412Z,5.80
2023-01-17T18:41:45.484Z,6.15
2023-01-17T18:44:12.531Z,10.48
2023-01-17T18:46:40.405Z,8.10
2023-01-17T18:49:07.678Z,6.68
2023-01-17T18:51:34.760Z,8.10
2023-01-17T18:54:05.888Z,7.38
2023-01-17T18:56:34.287Z,7.07
2023-01-17T18:59:01.606Z,7.22
2023-01-17T19:01:30.049Z,7.57
2023-01-17T19:03:59.074Z,11.82
2023-01-17T19:06:34.347Z,8.55
2023-01-17T19:09:01.402Z,14.43
2023-01-17T19:11:28.713Z,13.90
2023-01-17T19:13:55.802Z,9.88
2023-01-17T19:16:24.749Z,12.98
2023-01-17T19:18:52.389Z,15.57
2023-01-17T19:21:21.124Z,9.60
2023-01-17T19:23:48.376Z,12.43
2023-01-17T19:26:17.262Z,9.82
2023-01-17T19:28:45.016Z,8.60
2023-01-17T19:31:13.697Z,8.13
2023-01-17T19:33:42.257Z,13.98
2023-01-17T19:36:11.728Z,9.57
2023-01-17T19:38:38.711Z,9.20
2023-01-17T19:41:10.302Z,8.88
2023-01-17T19:43:37.452Z,8.18
2023-01-17T19:46:04.624Z,7.38
2023-01-17T19:48:31.592Z,9.00
2023-01-17T19:51:09.929Z,8.43
2023-01-17T19:53:37.299Z,6.97
2023-01-17T19:56:08.491Z,8.30
2023-01-17T19:58:35.540Z,9.73
2023-01-17T20:01:14.424Z,8.07
2023-01-17T20:03:43.740Z,8.48
2023-01-17T20:06:11.935Z,6.45
2023-01-17T20:08:38.942Z,5.78
2023-01-17T20:11:13.485Z,6.85
2023-01-17T20:13:41.236Z,8.38
2023-01-17T20:16:09.634Z,6.32
2023-01-17T20:18:36.698Z,7.32
2023-01-17T20:21:17.270Z,7.20
2023-01-17T20:23:45.023Z,9.75
2023-01-17T20:26:12.072Z,11.45
2023-01-17T20:28:40.057Z,11.23
2023-01-17T20:31:09.061Z,14.30
2023-01-17T20:33:36.564Z,12.65
2023-01-17T20:36:10.582Z,14.52
2023-01-17T20:38:44.571Z,15.65
2023-01-17T20:41:16.096Z,17.55
2023-01-17T20:43:43.512Z,17.35
2023-01-17T20:46:10.921Z,17.92
2023-01-17T20:48:42.362Z,20.65
2023-01-17T20:53:38.436Z,17.90
2023-01-17T20:56:05.844Z,15.63
2023-01-17T20:58:34.134Z,10.30
2023-01-17T21:01:01.223Z,9.63
2023-01-17T21:03:33.763Z,11.18
2023-01-17T21:06:01.868Z,9.80
2023-01-17T21:08:29.834Z,14.18
2023-01-17T21:10:56.770Z,15.00
2023-01-17T21:13:24.072Z,12.85
2023-01-17T21:15:52.025Z,13.57
2023-01-17T21:18:19.765Z,11.55
2023-01-17T21:20:47.048Z,11.55
2023-01-17T21:23:20.251Z,9.40
2023-01-17T21:25:57.186Z,10.45
2023-01-17T21:28:29.530Z,9.73
2023-01-17T21:30:56.789Z,10.65
2023-01-17T21:33:24.454Z,8.63
2023-01-17T21:35:51.440Z,8.55
2023-01-17T21:38:18.542Z,9.73
2023-01-17T21:40:45.906Z,7.85
2023-01-17T21:43:13.075Z,8.75
2023-01-17T21:45:41.019Z,7.63
2023-01-17T21:48:12.155Z,8.25
2023-01-17T21:50:39.348Z,8.52
2023-01-17T21:53:06.822Z,10.52
2023-01-17T21:55:52.824Z,9.05
2023-01-17T21:58:38.331Z,9.27
2023-01-17T22:01:11.051Z,9.75
2023-01-17T22:03:38.200Z,9.50
2023-01-17T22:06:05.231Z,9.85
2023-01-17T22:08:33.482Z,9.50
2023-01-17T22:11:08.034Z,10.50
2023-01-17T22:13:36.395Z,10.30
2023-01-17T22:16:05.616Z,8.82
2023-01-17T22:18:38.235Z,9.18
2023-01-17T22:21:07.240Z,9.05
2023-01-17T22:23:34.445Z,10.98
2023-01-17T22:26:03.182Z,10.85
2023-01-17T22:28:32.057Z,8.65
2023-01-17T22:31:17.124Z,9.10
2023-01-17T22:33:47.606Z,10.60
2023-01-17T22:36:17.128Z,8.68
2023-01-17T22:38:44.834Z,10.77
2023-01-17T22:41:13.545Z,9.05
2023-01-17T22:43:42.548Z,12.80
2023-01-17T22:46:11.051Z,11.77
2023-01-17T22:48:38.548Z,13.50
2023-01-17T22:51:06.755Z,12.15
2023-01-17T22:53:33.794Z,12.13
2023-01-17T22:56:03.498Z,11.60
2023-01-17T22:58:30.684Z,9.93
2023-01-17T23:01:10.279Z,9.90
2023-01-17T23:03:37.435Z,12.02
2023-01-17T23:06:13.845Z,9.82
2023-01-17T23:08:42.547Z,14.68
2023-01-17T23:11:41.814Z,13.65
2023-01-17T23:14:30.932Z,12.00
2023-01-17T23:17:17.494Z,13.02
2023-01-17T23:19:54.676Z,12.05
2023-01-17T23:22:26.982Z,14.73
2023-01-17T23:24:58.029Z,11.93
2023-01-17T23:27:54.986Z,11.30
2023-01-17T23:30:40.799Z,13.00
2023-01-17T23:33:12.381Z,14.18
2023-01-17T23:35:42.085Z,15.95
2023-01-17T23:38:26.029Z,11.07
2023-01-17T23:41:17.728Z,10.75
2023-01-17T23:43:44.683Z,11.60
2023-01-17T23:46:12.252Z,11.32
2023-01-17T23:48:39.162Z,11.32
2023-01-17T23:51:08.983Z,9.43
2023-01-17T23:53:36.805Z,11.90
2023-01-17T23:56:15.145Z,12.85
2023-01-17T23:58:42.109Z,12.02
